createdAt,value
2018-01-30T00:00:29.571Z,5.20
2018-01-30T00:02:57.017Z,5.20
2018-01-30T00:05:24.471Z,5.30
2018-01-30T00:07:52.005Z,5.30
2018-01-30T00:10:19.524Z,5.30
2018-01-30T00:12:46.945Z,5.40
2018-01-30T00:15:14.415Z,5.30
2018-01-30T00:17:41.872Z,5.20
2018-01-30T00:20:09.355Z,5.20
2018-01-30T00:22:36.845Z,5.10
2018-01-30T00:25:04.341Z,5.10
2018-01-30T00:27:31.822Z,5.20
2018-01-30T00:29:59.349Z,5.20
2018-01-30T00:32:26.816Z,5.10
2018-01-30T00:34:54.278Z,5.20
2018-01-30T00:37:21.777Z,5.30
2018-01-30T00:39:49.257Z,5.30
2018-01-30T00:42:16.721Z,5.30
2018-01-30T00:44:44.177Z,5.20
2018-01-30T00:47:11.640Z,5.10
2018-01-30T00:49:39.097Z,5.10
2018-01-30T00:52:06.810Z,5.00
2018-01-30T00:54:34.310Z,4.90
2018-01-30T00:57:01.770Z,4.90
2018-01-30T00:59:29.845Z,4.80
2018-01-30T01:01:57.293Z,4.80
2018-01-30T01:04:25.129Z,4.80
2018-01-30T01:06:52.627Z,4.80
2018-01-30T01:09:20.097Z,4.80
2018-01-30T01:11:47.558Z,4.80
2018-01-30T01:14:15.078Z,4.90
2018-01-30T01:16:42.650Z,4.80
2018-01-30T01:19:10.923Z,5.10
2018-01-30T01:21:39.302Z,5.10
2018-01-30T01:24:06.854Z,5.10
2018-01-30T01:26:34.321Z,5.10
2018-01-30T01:29:02.595Z,5.10
2018-01-30T01:31:30.054Z,5.10
2018-01-30T01:33:57.520Z,5.10
2018-01-30T01:36:24.991Z,5.20
2018-01-30T01:38:52.489Z,5.20
2018-01-30T01:41:19.956Z,5.20
2018-01-30T01:43:47.433Z,5.20
2018-01-30T01:46:14.926Z,5.20
2018-01-30T01:48:42.422Z,5.10
2018-01-30T01:51:09.874Z,5.10
2018-01-30T01:53:37.357Z,5.20
2018-01-30T01:56:04.816Z,5.20
2018-01-30T01:58:32.293Z,5.20
2018-01-30T02:00:59.761Z,5.10
2018-01-30T02:03:27.263Z,5.00
2018-01-30T02:05:54.741Z,5.10
2018-01-30T02:08:22.220Z,5.00
2018-01-30T02:10:49.715Z,5.00
2018-01-30T02:13:17.197Z,5.00
2018-01-30T02:15:44.681Z,5.10
2018-01-30T02:18:12.141Z,5.20
2018-01-30T02:20:39.614Z,5.20
2018-01-30T02:23:07.134Z,5.20
2018-01-30T02:25:34.604Z,5.30
2018-01-30T02:28:02.079Z,5.40
2018-01-30T02:30:29.614Z,5.40
2018-01-30T02:32:57.086Z,5.40
2018-01-30T02:35:24.557Z,5.50
2018-01-30T02:37:52.046Z,5.50
2018-01-30T02:40:19.519Z,5.50
2018-01-30T02:42:47.001Z,5.30
2018-01-30T02:45:14.547Z,5.40
2018-01-30T02:47:42.033Z,5.30
2018-01-30T02:50:09.500Z,5.40
2018-01-30T02:52:36.965Z,5.30
2018-01-30T02:55:04.465Z,5.40
2018-01-30T02:57:31.973Z,5.30
2018-01-30T02:59:59.430Z,5.30
2018-01-30T03:02:26.923Z,5.30
2018-01-30T03:04:54.400Z,5.30
2018-01-30T03:07:21.893Z,5.30
2018-01-30T03:09:50.125Z,5.20
2018-01-30T03:12:17.592Z,5.20
2018-01-30T03:14:45.053Z,5.20
2018-01-30T03:17:12.582Z,5.20
2018-01-30T03:19:40.070Z,5.20
2018-01-30T03:22:07.546Z,5.10
2018-01-30T03:24:35.017Z,5.10
2018-01-30T03:27:03.269Z,5.10
2018-01-30T03:29:30.753Z,5.10
2018-01-30T03:31:59.046Z,5.00
2018-01-30T03:34:26.546Z,5.00
2018-01-30T03:36:54.034Z,5.00
2018-01-30T03:39:22.288Z,4.90
2018-01-30T03:41:49.808Z,4.90
2018-01-30T03:44:17.302Z,4.90
2018-01-30T03:46:44.859Z,4.90
2018-01-30T03:49:12.337Z,4.80
2018-01-30T03:51:40.620Z,4.70
2018-01-30T03:54:08.861Z,4.70
2018-01-30T03:56:36.344Z,4.70
2018-01-30T03:59:04.574Z,4.60
2018-01-30T04:01:32.073Z,4.60
2018-01-30T04:03:59.533Z,4.70
2018-01-30T04:06:27.774Z,4.70
2018-01-30T04:08:55.255Z,4.70
2018-01-30T04:11:22.720Z,4.70
2018-01-30T04:13:50.207Z,4.70
2018-01-30T04:16:17.803Z,4.70
2018-01-30T04:18:45.273Z,4.70
2018-01-30T04:21:12.756Z,4.70
2018-01-30T04:23:40.229Z,4.90
2018-01-30T04:26:07.725Z,4.90
2018-01-30T04:28:35.198Z,4.80
2018-01-30T04:31:02.660Z,4.80
2018-01-30T04:33:30.124Z,4.80
2018-01-30T04:35:57.609Z,4.80
2018-01-30T04:38:25.109Z,4.70
2018-01-30T04:40:52.695Z,4.80
2018-01-30T04:43:20.170Z,4.80
2018-01-30T04:45:47.658Z,4.80
2018-01-30T04:48:15.119Z,4.70
2018-01-30T04:50:42.645Z,4.70
2018-01-30T04:53:10.930Z,4.60
2018-01-30T04:55:38.409Z,4.60
2018-01-30T04:58:05.923Z,4.70
2018-01-30T05:00:33.394Z,4.70
2018-01-30T05:03:00.948Z,4.70
2018-01-30T05:05:28.434Z,4.70
2018-01-30T05:07:56.107Z,4.60
2018-01-30T05:10:23.641Z,4.50
2018-01-30T05:12:51.148Z,4.60
2018-01-30T05:15:18.640Z,4.60
2018-01-30T05:17:47.114Z,4.70
2018-01-30T05:20:14.948Z,4.70
2018-01-30T05:22:42.526Z,4.70
2018-01-30T05:25:10.030Z,4.70
2018-01-30T05:27:37.619Z,4.80
2018-01-30T05:30:05.216Z,4.90
2018-01-30T05:32:32.692Z,5.00
2018-01-30T05:35:00.250Z,5.00
2018-01-30T05:37:28.500Z,5.00
2018-01-30T05:39:56.036Z,5.00
2018-01-30T05:42:23.614Z,4.90
2018-01-30T05:44:51.102Z,4.90
2018-01-30T05:47:18.576Z,4.90
2018-01-30T05:49:46.070Z,4.90
2018-01-30T05:52:13.567Z,4.90
2018-01-30T05:54:41.105Z,4.80
2018-01-30T05:57:08.586Z,4.80
2018-01-30T05:59:36.045Z,4.70
2018-01-30T06:02:03.500Z,4.70
2018-01-30T06:04:31.243Z,4.60
2018-01-30T06:06:58.718Z,4.60
2018-01-30T06:09:26.195Z,4.60
2018-01-30T06:11:53.714Z,4.50
2018-01-30T06:14:21.196Z,4.60
2018-01-30T06:16:48.865Z,4.60
2018-01-30T06:19:16.385Z,4.50
2018-01-30T06:21:43.885Z,4.50
2018-01-30T06:24:12.150Z,4.40
2018-01-30T06:26:39.700Z,4.40
2018-01-30T06:29:07.864Z,4.40
2018-01-30T06:31:35.341Z,4.40
2018-01-30T06:34:02.805Z,4.40
2018-01-30T06:36:30.265Z,4.50
2018-01-30T06:38:57.721Z,4.40
2018-01-30T06:41:25.958Z,4.40
2018-01-30T06:43:53.460Z,4.40
2018-01-30T06:46:20.941Z,4.40
2018-01-30T06:48:48.408Z,4.40
2018-01-30T06:51:15.861Z,4.40
2018-01-30T06:53:43.330Z,4.40
2018-01-30T06:56:10.797Z,4.30
2018-01-30T06:58:38.281Z,4.40
2018-01-30T07:01:06.543Z,4.30
2018-01-30T07:03:34.213Z,4.30
2018-01-30T07:06:01.689Z,4.30
2018-01-30T07:08:29.954Z,4.30
2018-01-30T07:10:57.431Z,4.30
2018-01-30T07:13:24.897Z,4.30
2018-01-30T07:15:52.610Z,4.30
2018-01-30T07:18:20.269Z,4.30
2018-01-30T07:20:47.742Z,4.30
2018-01-30T07:23:15.625Z,4.40
2018-01-30T07:25:43.305Z,4.40
2018-01-30T07:28:10.836Z,4.60
2018-01-30T07:30:39.088Z,4.80
2018-01-30T07:33:07.692Z,4.90
2018-01-30T07:35:36.015Z,4.80
2018-01-30T07:38:03.472Z,4.80
2018-01-30T07:40:31.411Z,4.90
2018-01-30T07:42:58.910Z,4.90
2018-01-30T07:45:26.365Z,5.00
2018-01-30T07:47:53.807Z,5.00
2018-01-30T07:50:21.277Z,5.00
2018-01-30T07:52:48.713Z,4.90
2018-01-30T07:55:16.173Z,4.80
2018-01-30T07:57:43.641Z,4.80
2018-01-30T08:00:11.107Z,4.70
2018-01-30T08:02:38.558Z,4.70
2018-01-30T08:05:06.013Z,4.60
2018-01-30T08:07:33.478Z,4.60
2018-01-30T08:10:00.925Z,4.70
2018-01-30T08:12:28.391Z,4.70
2018-01-30T08:14:55.850Z,4.60
2018-01-30T08:17:24.108Z,4.60
2018-01-30T08:19:51.582Z,4.60
2018-01-30T08:22:19.037Z,4.60
2018-01-30T08:24:46.489Z,4.60
2018-01-30T08:27:13.974Z,4.60
2018-01-30T08:29:41.401Z,4.60
2018-01-30T08:32:08.848Z,4.60
2018-01-30T08:34:36.340Z,4.70
2018-01-30T08:37:03.749Z,4.70
2018-01-30T08:39:31.210Z,4.80
2018-01-30T08:41:58.688Z,4.80
2018-01-30T08:44:26.133Z,4.90
2018-01-30T08:46:53.580Z,5.10
2018-01-30T08:49:21.043Z,5.10
2018-01-30T08:51:48.506Z,5.10
2018-01-30T08:54:15.962Z,5.30
2018-01-30T08:56:43.464Z,5.40
2018-01-30T08:59:10.903Z,5.50
2018-01-30T09:01:38.370Z,5.50
2018-01-30T09:04:05.817Z,5.60
2018-01-30T09:06:33.268Z,5.60
2018-01-30T09:09:00.733Z,5.70
2018-01-30T09:11:28.240Z,5.80
2018-01-30T09:13:56.452Z,5.80
2018-01-30T09:16:23.902Z,5.70
2018-01-30T09:18:51.354Z,5.80
2018-01-30T09:21:18.822Z,5.90
2018-01-30T09:23:46.285Z,5.90
2018-01-30T09:26:13.731Z,5.90
2018-01-30T09:28:41.186Z,5.90
2018-01-30T09:31:08.643Z,6.00
2018-01-30T09:33:36.121Z,6.10
2018-01-30T09:36:03.580Z,6.10
2018-01-30T09:38:31.029Z,6.10
2018-01-30T09:40:58.556Z,6.20
2018-01-30T09:43:25.998Z,6.30
2018-01-30T09:45:53.454Z,6.30
2018-01-30T09:48:20.907Z,6.40
2018-01-30T09:50:48.354Z,6.30
2018-01-30T09:53:16.598Z,6.30
2018-01-30T09:55:44.050Z,6.30
2018-01-30T09:58:11.499Z,6.30
2018-01-30T10:00:38.963Z,6.30
2018-01-30T10:03:06.419Z,6.30
2018-01-30T10:05:33.873Z,6.20
2018-01-30T10:08:01.321Z,6.20
2018-01-30T10:10:28.811Z,6.30
2018-01-30T10:12:56.256Z,6.30
2018-01-30T10:15:23.721Z,6.40
2018-01-30T10:17:51.175Z,6.50
2018-01-30T10:20:18.663Z,6.60
2018-01-30T10:22:46.117Z,6.70
2018-01-30T10:25:13.565Z,6.70
2018-01-30T10:27:41.022Z,6.80
2018-01-30T10:30:09.273Z,6.80
2018-01-30T10:32:36.727Z,6.80
2018-01-30T10:35:04.169Z,6.70
2018-01-30T10:37:31.631Z,6.60
2018-01-30T10:39:59.100Z,6.60
2018-01-30T10:42:26.541Z,6.60
2018-01-30T10:44:54.011Z,6.50
2018-01-30T10:47:21.471Z,6.50
2018-01-30T10:49:48.930Z,6.40
2018-01-30T10:52:16.379Z,6.40
2018-01-30T10:54:43.839Z,6.40
2018-01-30T10:57:11.290Z,6.50
2018-01-30T10:59:38.741Z,6.50
2018-01-30T11:02:06.214Z,6.60
2018-01-30T11:04:33.678Z,6.70
2018-01-30T11:07:01.127Z,6.80
2018-01-30T11:09:28.585Z,6.90
2018-01-30T11:11:56.070Z,7.00
2018-01-30T11:14:23.513Z,7.00
2018-01-30T11:16:51.056Z,6.90
2018-01-30T11:19:18.513Z,6.90
2018-01-30T11:21:45.965Z,7.00
2018-01-30T11:24:13.401Z,7.00
2018-01-30T11:26:40.862Z,7.10
2018-01-30T11:29:08.313Z,7.10
2018-01-30T11:31:35.786Z,7.20
2018-01-30T11:34:03.240Z,7.40
2018-01-30T11:36:30.691Z,7.50
2018-01-30T11:38:58.157Z,7.50
2018-01-30T11:41:25.612Z,7.50
2018-01-30T11:43:53.069Z,7.40
2018-01-30T11:46:20.525Z,7.30
2018-01-30T11:48:47.973Z,7.40
2018-01-30T11:51:15.434Z,7.30
2018-01-30T11:53:42.881Z,7.30
2018-01-30T11:56:10.333Z,7.30
2018-01-30T11:58:37.813Z,7.40
2018-01-30T12:01:05.280Z,7.30
2018-01-30T12:03:32.734Z,7.30
2018-01-30T12:06:00.221Z,7.20
2018-01-30T12:08:27.666Z,7.20
2018-01-30T12:10:55.877Z,7.10
2018-01-30T12:13:23.321Z,7.10
2018-01-30T12:15:50.774Z,7.10
2018-01-30T12:18:18.262Z,7.10
2018-01-30T12:20:45.698Z,7.20
2018-01-30T12:23:13.153Z,7.40
2018-01-30T12:25:40.620Z,7.40
2018-01-30T12:28:08.065Z,7.40
2018-01-30T12:30:35.513Z,7.40
2018-01-30T12:33:02.971Z,7.40
2018-01-30T12:35:30.415Z,7.40
2018-01-30T12:37:58.650Z,7.40
2018-01-30T12:40:26.132Z,7.40
2018-01-30T12:42:53.585Z,7.40
2018-01-30T12:45:21.038Z,7.50
2018-01-30T12:47:48.497Z,7.50
2018-01-30T12:50:15.952Z,7.50
2018-01-30T12:52:43.398Z,7.40
2018-01-30T12:55:10.869Z,7.40
2018-01-30T12:57:38.362Z,7.30
2018-01-30T13:00:05.800Z,7.20
2018-01-30T13:02:34.045Z,7.10
2018-01-30T13:05:01.465Z,7.10
2018-01-30T13:07:28.910Z,7.10
2018-01-30T13:09:56.345Z,7.20
2018-01-30T13:12:23.789Z,7.30
2018-01-30T13:14:51.233Z,7.50
2018-01-30T13:17:18.731Z,7.80
2018-01-30T13:19:46.198Z,7.90
2018-01-30T13:22:13.646Z,7.90
2018-01-30T13:24:41.093Z,7.90
2018-01-30T13:27:08.546Z,7.90
2018-01-30T13:29:36.770Z,7.80
2018-01-30T13:32:04.226Z,7.80
2018-01-30T13:34:31.833Z,7.80
2018-01-30T13:36:59.312Z,7.70
2018-01-30T13:39:26.744Z,7.40
2018-01-30T13:41:54.978Z,7.20
2018-01-30T13:44:22.434Z,7.20
2018-01-30T13:46:49.946Z,7.10
2018-01-30T13:49:17.429Z,7.00
2018-01-30T13:51:44.897Z,6.90
2018-01-30T13:54:12.360Z,6.90
2018-01-30T13:56:39.809Z,6.90
2018-01-30T13:59:07.269Z,6.90
2018-01-30T14:01:34.713Z,7.00
2018-01-30T14:04:02.163Z,7.00
2018-01-30T14:06:29.613Z,7.10
2018-01-30T14:08:57.082Z,7.10
2018-01-30T14:11:24.538Z,7.10
2018-01-30T14:13:51.976Z,7.10
2018-01-30T14:16:19.431Z,7.10
2018-01-30T14:18:46.891Z,7.20
2018-01-30T14:21:14.341Z,7.20
2018-01-30T14:23:41.795Z,7.10
2018-01-30T14:26:09.300Z,7.10
2018-01-30T14:28:36.721Z,7.10
2018-01-30T14:31:04.169Z,7.10
2018-01-30T14:33:31.611Z,7.20
2018-01-30T14:35:59.846Z,7.10
2018-01-30T14:38:27.303Z,7.10
2018-01-30T14:40:54.761Z,7.20
2018-01-30T14:43:22.217Z,7.10
2018-01-30T14:45:49.672Z,7.10
2018-01-30T14:48:17.121Z,7.10
2018-01-30T14:50:44.575Z,7.10
2018-01-30T14:53:12.049Z,7.10
2018-01-30T14:55:39.506Z,7.10
2018-01-30T14:58:06.966Z,7.10
2018-01-30T15:00:34.452Z,7.00
2018-01-30T15:03:02.666Z,7.00
2018-01-30T15:05:30.117Z,7.00
2018-01-30T15:07:57.570Z,7.00
2018-01-30T15:10:25.025Z,7.10
2018-01-30T15:12:52.481Z,7.10
2018-01-30T15:15:19.929Z,7.10
2018-01-30T15:17:47.381Z,7.00
2018-01-30T15:20:14.833Z,7.00
2018-01-30T15:22:43.047Z,7.00
2018-01-30T15:25:10.492Z,7.00
2018-01-30T15:27:37.949Z,7.00
2018-01-30T15:30:05.405Z,7.00
2018-01-30T15:32:32.849Z,7.00
2018-01-30T15:35:00.291Z,7.00
2018-01-30T15:37:27.744Z,7.00
2018-01-30T15:39:55.969Z,7.00
2018-01-30T15:42:23.437Z,6.90
2018-01-30T15:44:50.882Z,6.90
2018-01-30T15:47:18.335Z,6.80
2018-01-30T15:49:45.792Z,6.80
2018-01-30T15:52:13.246Z,6.90
2018-01-30T15:54:40.688Z,6.90
2018-01-30T15:57:08.158Z,6.90
2018-01-30T15:59:35.611Z,6.90
2018-01-30T16:02:03.068Z,6.90
2018-01-30T16:04:30.552Z,6.90
2018-01-30T16:06:57.969Z,6.90
2018-01-30T16:09:25.417Z,6.90
2018-01-30T16:11:52.870Z,6.90
2018-01-30T16:14:20.344Z,6.90
2018-01-30T16:16:47.801Z,6.90
2018-01-30T16:19:15.253Z,6.90
2018-01-30T16:21:42.706Z,6.80
2018-01-30T16:24:10.185Z,6.80
2018-01-30T16:26:37.625Z,6.80
2018-01-30T16:29:05.090Z,6.80
2018-01-30T16:31:32.551Z,6.80
2018-01-30T16:34:00.009Z,6.80
2018-01-30T16:36:27.478Z,6.80
2018-01-30T16:38:54.960Z,6.70
2018-01-30T16:41:22.413Z,6.70
2018-01-30T16:43:49.861Z,6.60
2018-01-30T16:46:17.361Z,6.70
2018-01-30T16:48:44.810Z,6.70
2018-01-30T16:51:12.271Z,6.70
2018-01-30T16:53:39.764Z,6.70
2018-01-30T16:56:07.219Z,6.70
2018-01-30T16:58:34.669Z,6.70
2018-01-30T17:01:02.118Z,6.70
2018-01-30T17:03:29.593Z,6.70
2018-01-30T17:05:57.151Z,6.60
2018-01-30T17:08:24.713Z,6.70
2018-01-30T17:10:52.195Z,6.80
2018-01-30T17:13:19.652Z,6.80
2018-01-30T17:15:47.173Z,6.80
2018-01-30T17:18:14.647Z,6.70
2018-01-30T17:20:42.166Z,6.70
2018-01-30T17:23:09.642Z,6.60
2018-01-30T17:25:37.111Z,6.60
2018-01-30T17:28:04.574Z,6.60
2018-01-30T17:30:32.098Z,6.60
2018-01-30T17:32:59.548Z,6.60
2018-01-30T17:35:27.007Z,6.60
2018-01-30T17:37:54.546Z,6.50
2018-01-30T17:40:22.030Z,6.50
2018-01-30T17:42:49.478Z,6.50
2018-01-30T17:45:16.942Z,6.50
2018-01-30T17:47:45.191Z,6.50
2018-01-30T17:50:13.441Z,6.50
2018-01-30T17:52:42.974Z,6.40
2018-01-30T17:55:10.444Z,6.50
2018-01-30T17:57:37.913Z,6.50
2018-01-30T18:00:09.265Z,6.50
2018-01-30T18:36:14.785Z,6.40
2018-01-30T18:38:49.523Z,6.30
2018-01-30T18:41:17.097Z,6.30
2018-01-30T18:43:44.592Z,6.30
2018-01-30T18:46:12.110Z,6.30
2018-01-30T18:48:39.596Z,6.10
2018-01-30T18:51:07.083Z,6.10
2018-01-30T18:53:34.563Z,5.90
2018-01-30T18:56:02.072Z,5.80
2018-01-30T18:58:30.116Z,5.80
2018-01-30T19:00:57.602Z,5.80
2018-01-30T19:03:25.199Z,5.70
2018-01-30T19:05:52.673Z,5.60
2018-01-30T19:08:20.151Z,5.60
2018-01-30T19:10:47.627Z,5.60
2018-01-30T19:13:15.123Z,5.50
2018-01-30T19:15:42.733Z,5.40
2018-01-30T19:18:10.252Z,5.40
2018-01-30T19:20:37.731Z,5.30
2018-01-30T19:23:05.224Z,5.30
2018-01-30T19:25:32.814Z,5.30
2018-01-30T19:28:00.419Z,5.20
2018-01-30T19:30:28.008Z,5.20
2018-01-30T19:32:55.531Z,5.20
2018-01-30T19:35:23.321Z,5.10
2018-01-30T19:37:50.822Z,5.10
2018-01-30T19:40:18.337Z,5.10
2018-01-30T19:42:45.855Z,5.10
2018-01-30T19:45:13.342Z,5.10
2018-01-30T19:47:41.511Z,5.00
2018-01-30T19:50:09.017Z,5.00
2018-01-30T19:52:36.708Z,5.00
2018-01-30T19:55:05.378Z,5.00
2018-01-30T19:57:32.955Z,4.90
2018-01-30T20:00:00.531Z,4.90
2018-01-30T20:02:28.471Z,5.00
2018-01-30T20:04:56.065Z,5.00
2018-01-30T20:07:23.601Z,5.10
2018-01-30T20:09:51.903Z,5.10
2018-01-30T20:12:19.464Z,5.10
2018-01-30T20:14:46.973Z,5.10
2018-01-30T20:17:20.152Z,5.10
2018-01-30T20:19:47.790Z,5.00
2018-01-30T20:22:15.468Z,5.10
2018-01-30T20:24:43.302Z,5.10
2018-01-30T20:27:10.979Z,5.10
2018-01-30T20:29:38.712Z,5.00
2018-01-30T20:32:07.611Z,4.90
2018-01-30T20:34:36.122Z,4.90
2018-01-30T20:37:05.536Z,4.90
2018-01-30T20:39:33.274Z,4.90
2018-01-30T20:42:01.222Z,4.80
2018-01-30T20:44:28.790Z,4.80
2018-01-30T20:46:56.278Z,4.80
2018-01-30T20:49:23.883Z,4.80
2018-01-30T20:51:55.625Z,4.70
2018-01-30T20:54:23.267Z,4.70
2018-01-30T20:56:50.758Z,4.70
2018-01-30T20:59:18.340Z,4.70
2018-01-30T21:01:45.967Z,4.70
2018-01-30T21:04:13.559Z,4.70
2018-01-30T21:06:41.261Z,4.60
2018-01-30T21:09:09.035Z,4.60
2018-01-30T21:11:47.243Z,4.70
2018-01-30T21:14:19.556Z,4.60
2018-01-30T22:03:19.478Z,4.40
2018-01-30T22:05:52.218Z,4.40
2018-01-30T22:08:26.138Z,4.30
2018-01-30T22:10:54.003Z,4.30
2018-01-30T22:16:24.248Z,4.40
2018-01-30T22:30:47.118Z,4.30
2018-01-30T22:33:14.807Z,4.40
2018-01-30T22:35:43.781Z,4.40
2018-01-30T22:38:15.860Z,4.50
2018-01-30T22:40:45.989Z,4.50
2018-01-30T22:43:14.483Z,4.50
2018-01-30T22:45:46.013Z,4.40
